sensor_id;sensor_type;location;lat;lon;timestamp;P1;durP1;ratioP1;P2;durP2;ratioP2
773;SDS011;370;48.810;9.150;2022-12-18T00:02:12;4.82;;;2.85;;
773;SDS011;370;48.810;9.150;2022-12-18T00:04:39;1.60;;;1.05;;
773;SDS011;370;48.810;9.150;2022-12-18T00:07:05;7.57;;;2.40;;
773;SDS011;370;48.810;9.150;2022-12-18T00:09:32;8.70;;;1.67;;
773;SDS011;370;48.810;9.150;2022-12-18T00:11:59;3.13;;;1.83;;
773;SDS011;370;48.810;9.150;2022-12-18T00:14:26;2.67;;;1.67;;
773;SDS011;370;48.810;9.150;2022-12-18T00:16:54;0.95;;;0.93;;
773;SDS011;370;48.810;9.150;2022-12-18T00:19:23;11.18;;;4.50;;
773;SDS011;370;48.810;9.150;2022-12-18T00:21:50;5.60;;;1.77;;
773;SDS011;370;48.810;9.150;2022-12-18T00:24:16;3.03;;;2.25;;
773;SDS011;370;48.810;9.150;2022-12-18T00:26:43;13.55;;;3.08;;
773;SDS011;370;48.810;9.150;2022-12-18T00:29:11;3.97;;;2.83;;
773;SDS011;370;48.810;9.150;2022-12-18T00:31:39;0.95;;;0.88;;
773;SDS011;370;48.810;9.150;2022-12-18T00:34:10;2.17;;;1.13;;
773;SDS011;370;48.810;9.150;2022-12-18T00:36:39;1.95;;;1.67;;
773;SDS011;370;48.810;9.150;2022-12-18T00:39:06;2.00;;;1.73;;
773;SDS011;370;48.810;9.150;2022-12-18T00:41:33;2.25;;;0.70;;
773;SDS011;370;48.810;9.150;2022-12-18T00:44:18;1.15;;;1.05;;
773;SDS011;370;48.810;9.150;2022-12-18T00:46:46;3.70;;;2.33;;
773;SDS011;370;48.810;9.150;2022-12-18T00:49:18;10.55;;;3.60;;
773;SDS011;370;48.810;9.150;2022-12-18T00:51:46;6.57;;;2.47;;
773;SDS011;370;48.810;9.150;2022-12-18T00:54:14;5.45;;;2.17;;
773;SDS011;370;48.810;9.150;2022-12-18T00:56:41;6.93;;;2.70;;
773;SDS011;370;48.810;9.150;2022-12-18T00:59:09;1.00;;;0.93;;
773;SDS011;370;48.810;9.150;2022-12-18T01:01:36;0.88;;;0.77;;
773;SDS011;370;48.810;9.150;2022-12-18T01:04:03;3.35;;;0.95;;
773;SDS011;370;48.810;9.150;2022-12-18T01:06:31;16.25;;;5.03;;
773;SDS011;370;48.810;9.150;2022-12-18T01:08:58;7.28;;;2.05;;
773;SDS011;370;48.810;9.150;2022-12-18T01:11:25;1.15;;;1.08;;
773;SDS011;370;48.810;9.150;2022-12-18T01:13:52;1.58;;;1.45;;
773;SDS011;370;48.810;9.150;2022-12-18T01:16:20;2.72;;;2.17;;
773;SDS011;370;48.810;9.150;2022-12-18T01:18:47;1.15;;;1.05;;
773;SDS011;370;48.810;9.150;2022-12-18T01:21:14;14.63;;;1.90;;
773;SDS011;370;48.810;9.150;2022-12-18T01:23:43;1.67;;;1.58;;
773;SDS011;370;48.810;9.150;2022-12-18T01:26:11;2.35;;;1.35;;
773;SDS011;370;48.810;9.150;2022-12-18T01:28:39;4.70;;;1.73;;
773;SDS011;370;48.810;9.150;2022-12-18T01:31:13;0.60;;;0.40;;
773;SDS011;370;48.810;9.150;2022-12-18T01:33:42;1.10;;;1.00;;
773;SDS011;370;48.810;9.150;2022-12-18T01:36:14;1.83;;;1.73;;
773;SDS011;370;48.810;9.150;2022-12-18T01:38:43;0.93;;;0.63;;
773;SDS011;370;48.810;9.150;2022-12-18T01:41:11;1.33;;;1.23;;
773;SDS011;370;48.810;9.150;2022-12-18T01:43:41;1.05;;;0.95;;
773;SDS011;370;48.810;9.150;2022-12-18T01:46:13;1.98;;;1.60;;
773;SDS011;370;48.810;9.150;2022-12-18T01:48:40;0.90;;;0.80;;
773;SDS011;370;48.810;9.150;2022-12-18T01:51:09;0.38;;;0.32;;
773;SDS011;370;48.810;9.150;2022-12-18T01:53:37;0.50;;;0.50;;
773;SDS011;370;48.810;9.150;2022-12-18T01:56:07;0.60;;;0.60;;
773;SDS011;370;48.810;9.150;2022-12-18T01:58:39;0.60;;;0.50;;
773;SDS011;370;48.810;9.150;2022-12-18T02:01:14;0.70;;;0.47;;
773;SDS011;370;48.810;9.150;2022-12-18T02:03:42;25.67;;;1.90;;
773;SDS011;370;48.810;9.150;2022-12-18T02:06:12;0.50;;;0.50;;
773;SDS011;370;48.810;9.150;2022-12-18T02:08:44;0.80;;;0.70;;
773;SDS011;370;48.810;9.150;2022-12-18T02:11:18;0.63;;;0.60;;
773;SDS011;370;48.810;9.150;2022-12-18T02:13:55;1.45;;;1.38;;
773;SDS011;370;48.810;9.150;2022-12-18T02:16:31;1.00;;;0.90;;
773;SDS011;370;48.810;9.150;2022-12-18T02:19:06;1.33;;;1.25;;
773;SDS011;370;48.810;9.150;2022-12-18T02:21:44;1.63;;;0.93;;
773;SDS011;370;48.810;9.150;2022-12-18T02:24:18;1.58;;;0.60;;
773;SDS011;370;48.810;9.150;2022-12-18T02:26:56;0.77;;;0.73;;
773;SDS011;370;48.810;9.150;2022-12-18T02:29:28;0.60;;;0.52;;
773;SDS011;370;48.810;9.150;2022-12-18T02:31:59;0.40;;;0.40;;
773;SDS011;370;48.810;9.150;2022-12-18T02:34:26;4.20;;;1.23;;
773;SDS011;370;48.810;9.150;2022-12-18T02:36:56;0.93;;;0.80;;
773;SDS011;370;48.810;9.150;2022-12-18T02:39:26;1.52;;;1.17;;
773;SDS011;370;48.810;9.150;2022-12-18T02:41:56;4.43;;;2.58;;
773;SDS011;370;48.810;9.150;2022-12-18T02:44:24;3.10;;;1.40;;
773;SDS011;370;48.810;9.150;2022-12-18T02:46:51;1.00;;;0.90;;
773;SDS011;370;48.810;9.150;2022-12-18T02:49:26;7.25;;;2.25;;
773;SDS011;370;48.810;9.150;2022-12-18T02:52:01;1.25;;;1.17;;
773;SDS011;370;48.810;9.150;2022-12-18T02:54:37;1.30;;;1.00;;
773;SDS011;370;48.810;9.150;2022-12-18T02:57:18;4.38;;;2.03;;
773;SDS011;370;48.810;9.150;2022-12-18T02:59:52;6.80;;;2.42;;
773;SDS011;370;48.810;9.150;2022-12-18T03:02:26;5.57;;;2.75;;
773;SDS011;370;48.810;9.150;2022-12-18T03:05:00;6.00;;;2.95;;
773;SDS011;370;48.810;9.150;2022-12-18T03:07:33;1.42;;;1.25;;
773;SDS011;370;48.810;9.150;2022-12-18T03:10:03;5.65;;;3.00;;
773;SDS011;370;48.810;9.150;2022-12-18T03:12:37;4.05;;;2.53;;
773;SDS011;370;48.810;9.150;2022-12-18T03:15:09;1.15;;;1.10;;
773;SDS011;370;48.810;9.150;2022-12-18T03:17:42;1.17;;;0.98;;
773;SDS011;370;48.810;9.150;2022-12-18T03:20:15;1.83;;;1.75;;
773;SDS011;370;48.810;9.150;2022-12-18T03:22:46;4.88;;;3.08;;
773;SDS011;370;48.810;9.150;2022-12-18T03:25:16;4.10;;;1.70;;
773;SDS011;370;48.810;9.150;2022-12-18T03:27:47;1.00;;;0.82;;
773;SDS011;370;48.810;9.150;2022-12-18T03:30:17;1.88;;;1.77;;
773;SDS011;370;48.810;9.150;2022-12-18T03:32:46;0.50;;;0.45;;
773;SDS011;370;48.810;9.150;2022-12-18T03:35:17;0.80;;;0.70;;
773;SDS011;370;48.810;9.150;2022-12-18T03:37:47;3.70;;;1.40;;
773;SDS011;370;48.810;9.150;2022-12-18T03:40:15;5.55;;;0.85;;
773;SDS011;370;48.810;9.150;2022-12-18T03:42:43;1.80;;;1.70;;
773;SDS011;370;48.810;9.150;2022-12-18T03:45:18;17.00;;;2.08;;
773;SDS011;370;48.810;9.150;2022-12-18T03:47:51;3.55;;;2.30;;
773;SDS011;370;48.810;9.150;2022-12-18T03:50:25;7.07;;;2.95;;
773;SDS011;370;48.810;9.150;2022-12-18T03:53:00;0.60;;;0.50;;
773;SDS011;370;48.810;9.150;2022-12-18T03:55:35;4.25;;;1.60;;
773;SDS011;370;48.810;9.150;2022-12-18T03:58:04;1.30;;;1.20;;
773;SDS011;370;48.810;9.150;2022-12-18T04:00:33;6.45;;;2.00;;
773;SDS011;370;48.810;9.150;2022-12-18T04:03:01;14.30;;;2.35;;
773;SDS011;370;48.810;9.150;2022-12-18T04:05:30;2.50;;;1.42;;
773;SDS011;370;48.810;9.150;2022-12-18T04:07:59;3.00;;;1.30;;
773;SDS011;370;48.810;9.150;2022-12-18T04:10:27;2.45;;;2.28;;
773;SDS011;370;48.810;9.150;2022-12-18T04:12:55;1.15;;;0.90;;
773;SDS011;370;48.810;9.150;2022-12-18T04:15:23;2.25;;;1.48;;
773;SDS011;370;48.810;9.150;2022-12-18T04:17:50;1.77;;;1.63;;
773;SDS011;370;48.810;9.150;2022-12-18T04:20:17;1.83;;;1.25;;
773;SDS011;370;48.810;9.150;2022-12-18T04:22:44;4.13;;;1.08;;
773;SDS011;370;48.810;9.150;2022-12-18T04:25:10;2.90;;;0.95;;
773;SDS011;370;48.810;9.150;2022-12-18T04:27:38;0.70;;;0.65;;
773;SDS011;370;48.810;9.150;2022-12-18T04:30:05;3.08;;;1.60;;
773;SDS011;370;48.810;9.150;2022-12-18T04:32:34;6.15;;;1.52;;
773;SDS011;370;48.810;9.150;2022-12-18T04:35:01;1.05;;;0.95;;
773;SDS011;370;48.810;9.150;2022-12-18T04:37:31;1.83;;;1.30;;
773;SDS011;370;48.810;9.150;2022-12-18T04:39:58;9.18;;;2.05;;
773;SDS011;370;48.810;9.150;2022-12-18T04:42:25;0.60;;;0.60;;
773;SDS011;370;48.810;9.150;2022-12-18T04:44:52;8.77;;;3.83;;
773;SDS011;370;48.810;9.150;2022-12-18T04:47:19;4.65;;;1.70;;
773;SDS011;370;48.810;9.150;2022-12-18T04:49:47;4.05;;;2.00;;
773;SDS011;370;48.810;9.150;2022-12-18T04:52:13;3.15;;;2.15;;
773;SDS011;370;48.810;9.150;2022-12-18T04:54:40;11.80;;;2.30;;
773;SDS011;370;48.810;9.150;2022-12-18T04:57:07;14.68;;;7.13;;
773;SDS011;370;48.810;9.150;2022-12-18T04:59:34;10.57;;;4.32;;
773;SDS011;370;48.810;9.150;2022-12-18T05:02:01;6.70;;;1.98;;
773;SDS011;370;48.810;9.150;2022-12-18T05:04:27;0.95;;;0.85;;
773;SDS011;370;48.810;9.150;2022-12-18T05:06:56;0.30;;;0.30;;
773;SDS011;370;48.810;9.150;2022-12-18T05:09:23;1.67;;;1.10;;
773;SDS011;370;48.810;9.150;2022-12-18T05:11:50;0.60;;;0.50;;
773;SDS011;370;48.810;9.150;2022-12-18T05:14:16;5.03;;;2.35;;
773;SDS011;370;48.810;9.150;2022-12-18T05:16:43;2.22;;;2.13;;
773;SDS011;370;48.810;9.150;2022-12-18T05:19:10;7.80;;;3.22;;
773;SDS011;370;48.810;9.150;2022-12-18T05:21:37;5.63;;;2.15;;
773;SDS011;370;48.810;9.150;2022-12-18T05:24:06;4.45;;;1.60;;
773;SDS011;370;48.810;9.150;2022-12-18T05:26:33;9.65;;;2.83;;
773;SDS011;370;48.810;9.150;2022-12-18T05:28:59;2.88;;;2.25;;
773;SDS011;370;48.810;9.150;2022-12-18T05:31:26;1.15;;;1.05;;
773;SDS011;370;48.810;9.150;2022-12-18T05:33:53;1.92;;;1.00;;
773;SDS011;370;48.810;9.150;2022-12-18T05:36:20;2.55;;;2.35;;
773;SDS011;370;48.810;9.150;2022-12-18T05:38:47;0.50;;;0.40;;
773;SDS011;370;48.810;9.150;2022-12-18T05:41:15;5.72;;;3.15;;
773;SDS011;370;48.810;9.150;2022-12-18T05:43:42;2.17;;;1.35;;
773;SDS011;370;48.810;9.150;2022-12-18T05:46:11;3.85;;;2.47;;
773;SDS011;370;48.810;9.150;2022-12-18T05:48:39;2.03;;;1.15;;
773;SDS011;370;48.810;9.150;2022-12-18T05:51:07;1.85;;;1.08;;
773;SDS011;370;48.810;9.150;2022-12-18T05:53:37;0.50;;;0.45;;
773;SDS011;370;48.810;9.150;2022-12-18T05:56:05;0.75;;;0.65;;
773;SDS011;370;48.810;9.150;2022-12-18T05:58:35;2.45;;;0.70;;
773;SDS011;370;48.810;9.150;2022-12-18T06:01:06;2.88;;;1.35;;
773;SDS011;370;48.810;9.150;2022-12-18T06:03:34;5.53;;;2.00;;
773;SDS011;370;48.810;9.150;2022-12-18T06:06:01;6.88;;;2.40;;
773;SDS011;370;48.810;9.150;2022-12-18T06:08:28;0.40;;;0.40;;
773;SDS011;370;48.810;9.150;2022-12-18T06:10:55;1.45;;;1.40;;
773;SDS011;370;48.810;9.150;2022-12-18T06:13:22;2.45;;;0.70;;
773;SDS011;370;48.810;9.150;2022-12-18T06:15:50;2.53;;;2.17;;
773;SDS011;370;48.810;9.150;2022-12-18T06:18:17;0.50;;;0.50;;
773;SDS011;370;48.810;9.150;2022-12-18T06:20:44;1.20;;;0.75;;
773;SDS011;370;48.810;9.150;2022-12-18T06:23:11;4.15;;;2.25;;
773;SDS011;370;48.810;9.150;2022-12-18T06:25:38;6.45;;;4.45;;
773;SDS011;370;48.810;9.150;2022-12-18T06:28:05;0.40;;;0.38;;
773;SDS011;370;48.810;9.150;2022-12-18T06:30:32;13.57;;;1.55;;
773;SDS011;370;48.810;9.150;2022-12-18T06:33:00;3.83;;;1.33;;
773;SDS011;370;48.810;9.150;2022-12-18T06:35:27;0.93;;;0.55;;
773;SDS011;370;48.810;9.150;2022-12-18T06:37:54;1.50;;;1.35;;
773;SDS011;370;48.810;9.150;2022-12-18T06:40:21;1.55;;;1.45;;
773;SDS011;370;48.810;9.150;2022-12-18T06:42:47;2.05;;;1.65;;
773;SDS011;370;48.810;9.150;2022-12-18T06:45:14;3.22;;;1.58;;
773;SDS011;370;48.810;9.150;2022-12-18T06:47:41;0.68;;;0.68;;
773;SDS011;370;48.810;9.150;2022-12-18T06:50:09;1.40;;;0.55;;
773;SDS011;370;48.810;9.150;2022-12-18T06:52:37;4.80;;;2.35;;
773;SDS011;370;48.810;9.150;2022-12-18T06:55:05;0.30;;;0.30;;
773;SDS011;370;48.810;9.150;2022-12-18T06:57:33;3.42;;;1.27;;
773;SDS011;370;48.810;9.150;2022-12-18T07:00:00;0.88;;;0.75;;
773;SDS011;370;48.810;9.150;2022-12-18T07:02:27;1.77;;;0.70;;
773;SDS011;370;48.810;9.150;2022-12-18T07:04:54;1.08;;;0.73;;
773;SDS011;370;48.810;9.150;2022-12-18T07:07:23;0.30;;;0.30;;
773;SDS011;370;48.810;9.150;2022-12-18T07:09:50;0.30;;;0.30;;
773;SDS011;370;48.810;9.150;2022-12-18T07:12:17;9.45;;;2.05;;
773;SDS011;370;48.810;9.150;2022-12-18T07:14:44;0.82;;;0.73;;
773;SDS011;370;48.810;9.150;2022-12-18T07:17:11;3.83;;;1.02;;
773;SDS011;370;48.810;9.150;2022-12-18T07:19:38;2.92;;;0.70;;
773;SDS011;370;48.810;9.150;2022-12-18T07:22:04;0.57;;;0.50;;
773;SDS011;370;48.810;9.150;2022-12-18T07:24:33;3.75;;;1.95;;
773;SDS011;370;48.810;9.150;2022-12-18T07:27:00;5.53;;;2.03;;
773;SDS011;370;48.810;9.150;2022-12-18T07:29:27;3.53;;;1.08;;
773;SDS011;370;48.810;9.150;2022-12-18T07:31:54;5.15;;;2.17;;
773;SDS011;370;48.810;9.150;2022-12-18T07:34:21;3.90;;;2.05;;
773;SDS011;370;48.810;9.150;2022-12-18T07:36:47;1.10;;;1.00;;
773;SDS011;370;48.810;9.150;2022-12-18T07:39:14;4.00;;;1.05;;
773;SDS011;370;48.810;9.150;2022-12-18T07:41:42;11.35;;;2.00;;
773;SDS011;370;48.810;9.150;2022-12-18T07:44:29;2.85;;;1.30;;
773;SDS011;370;48.810;9.150;2022-12-18T07:46:56;4.78;;;1.92;;
773;SDS011;370;48.810;9.150;2022-12-18T07:49:23;1.67;;;1.55;;
773;SDS011;370;48.810;9.150;2022-12-18T07:51:50;1.20;;;0.90;;
773;SDS011;370;48.810;9.150;2022-12-18T07:54:17;2.05;;;1.85;;
773;SDS011;370;48.810;9.150;2022-12-18T07:56:46;2.25;;;1.27;;
773;SDS011;370;48.810;9.150;2022-12-18T07:59:13;4.18;;;1.33;;
773;SDS011;370;48.810;9.150;2022-12-18T08:01:40;18.73;;;1.77;;
773;SDS011;370;48.810;9.150;2022-12-18T08:04:07;1.52;;;0.82;;
773;SDS011;370;48.810;9.150;2022-12-18T08:06:33;3.42;;;1.83;;
773;SDS011;370;48.810;9.150;2022-12-18T08:09:00;1.60;;;0.85;;
773;SDS011;370;48.810;9.150;2022-12-18T08:11:29;1.80;;;1.42;;
773;SDS011;370;48.810;9.150;2022-12-18T08:13:58;1.73;;;1.42;;
773;SDS011;370;48.810;9.150;2022-12-18T08:16:25;24.48;;;3.45;;
773;SDS011;370;48.810;9.150;2022-12-18T08:18:52;2.05;;;1.85;;
773;SDS011;370;48.810;9.150;2022-12-18T08:21:20;8.20;;;3.72;;
773;SDS011;370;48.810;9.150;2022-12-18T08:23:48;1.30;;;1.20;;
773;SDS011;370;48.810;9.150;2022-12-18T08:26:19;2.90;;;2.08;;
773;SDS011;370;48.810;9.150;2022-12-18T08:28:46;2.47;;;2.03;;
773;SDS011;370;48.810;9.150;2022-12-18T08:31:14;4.07;;;2.45;;
773;SDS011;370;48.810;9.150;2022-12-18T08:33:41;3.45;;;2.65;;
773;SDS011;370;48.810;9.150;2022-12-18T08:36:08;7.82;;;3.35;;
773;SDS011;370;48.810;9.150;2022-12-18T08:38:36;3.50;;;1.98;;
773;SDS011;370;48.810;9.150;2022-12-18T08:41:03;1.95;;;1.88;;
773;SDS011;370;48.810;9.150;2022-12-18T08:43:32;2.67;;;2.13;;
773;SDS011;370;48.810;9.150;2022-12-18T08:46:17;2.83;;;1.92;;
773;SDS011;370;48.810;9.150;2022-12-18T08:48:45;3.30;;;1.77;;
773;SDS011;370;48.810;9.150;2022-12-18T08:51:12;1.23;;;1.13;;
773;SDS011;370;48.810;9.150;2022-12-18T08:53:39;9.98;;;3.55;;
773;SDS011;370;48.810;9.150;2022-12-18T08:56:07;2.25;;;1.42;;
773;SDS011;370;48.810;9.150;2022-12-18T08:58:34;2.85;;;1.77;;
773;SDS011;370;48.810;9.150;2022-12-18T09:01:01;4.45;;;2.28;;
773;SDS011;370;48.810;9.150;2022-12-18T09:03:29;11.20;;;4.88;;
773;SDS011;370;48.810;9.150;2022-12-18T09:05:57;26.30;;;5.97;;
773;SDS011;370;48.810;9.150;2022-12-18T09:08:24;7.28;;;3.88;;
773;SDS011;370;48.810;9.150;2022-12-18T09:10:51;21.65;;;7.07;;
773;SDS011;370;48.810;9.150;2022-12-18T09:13:18;19.77;;;7.93;;
773;SDS011;370;48.810;9.150;2022-12-18T09:15:46;31.83;;;10.98;;
773;SDS011;370;48.810;9.150;2022-12-18T09:18:15;27.95;;;10.73;;
773;SDS011;370;48.810;9.150;2022-12-18T09:20:44;28.98;;;10.20;;
773;SDS011;370;48.810;9.150;2022-12-18T09:23:12;33.10;;;10.43;;
773;SDS011;370;48.810;9.150;2022-12-18T09:25:39;32.22;;;9.55;;
773;SDS011;370;48.810;9.150;2022-12-18T09:28:09;29.52;;;10.82;;
773;SDS011;370;48.810;9.150;2022-12-18T09:30:37;40.60;;;12.07;;
773;SDS011;370;48.810;9.150;2022-12-18T09:33:04;26.65;;;10.15;;
773;SDS011;370;48.810;9.150;2022-12-18T09:35:31;27.42;;;10.88;;
773;SDS011;370;48.810;9.150;2022-12-18T09:37:59;30.92;;;11.45;;
773;SDS011;370;48.810;9.150;2022-12-18T09:40:27;27.35;;;10.90;;
773;SDS011;370;48.810;9.150;2022-12-18T09:42:58;36.03;;;11.75;;
773;SDS011;370;48.810;9.150;2022-12-18T09:45:29;27.70;;;11.60;;
773;SDS011;370;48.810;9.150;2022-12-18T09:47:59;32.45;;;12.68;;
773;SDS011;370;48.810;9.150;2022-12-18T09:50:27;35.07;;;13.93;;
773;SDS011;370;48.810;9.150;2022-12-18T09:52:58;32.47;;;11.93;;
773;SDS011;370;48.810;9.150;2022-12-18T09:55:31;30.20;;;11.00;;
773;SDS011;370;48.810;9.150;2022-12-18T09:58:02;37.37;;;13.77;;
773;SDS011;370;48.810;9.150;2022-12-18T10:00:35;30.53;;;12.00;;
773;SDS011;370;48.810;9.150;2022-12-18T10:03:03;29.27;;;10.80;;
773;SDS011;370;48.810;9.150;2022-12-18T10:05:37;28.98;;;9.88;;
773;SDS011;370;48.810;9.150;2022-12-18T10:08:13;30.75;;;10.45;;
773;SDS011;370;48.810;9.150;2022-12-18T10:10:46;23.15;;;8.50;;
773;SDS011;370;48.810;9.150;2022-12-18T10:13:19;22.75;;;8.93;;
773;SDS011;370;48.810;9.150;2022-12-18T10:15:53;21.88;;;8.40;;
773;SDS011;370;48.810;9.150;2022-12-18T10:18:29;26.48;;;5.88;;
773;SDS011;370;48.810;9.150;2022-12-18T10:21:05;25.45;;;8.88;;
773;SDS011;370;48.810;9.150;2022-12-18T10:23:39;18.02;;;7.35;;
773;SDS011;370;48.810;9.150;2022-12-18T10:26:14;20.70;;;6.30;;
773;SDS011;370;48.810;9.150;2022-12-18T10:28:41;31.77;;;6.10;;
773;SDS011;370;48.810;9.150;2022-12-18T10:31:10;16.08;;;5.35;;
773;SDS011;370;48.810;9.150;2022-12-18T10:33:41;16.88;;;6.20;;
773;SDS011;370;48.810;9.150;2022-12-18T10:36:09;14.27;;;5.93;;
773;SDS011;370;48.810;9.150;2022-12-18T10:38:42;16.65;;;5.82;;
773;SDS011;370;48.810;9.150;2022-12-18T10:41:22;11.45;;;4.10;;
773;SDS011;370;48.810;9.150;2022-12-18T10:44:10;17.88;;;5.47;;
773;SDS011;370;48.810;9.150;2022-12-18T10:46:39;5.82;;;2.50;;
773;SDS011;370;48.810;9.150;2022-12-18T10:49:18;18.83;;;5.72;;
773;SDS011;370;48.810;9.150;2022-12-18T10:51:47;15.38;;;4.88;;
773;SDS011;370;48.810;9.150;2022-12-18T10:54:20;18.90;;;4.43;;
773;SDS011;370;48.810;9.150;2022-12-18T10:56:50;19.00;;;4.28;;
773;SDS011;370;48.810;9.150;2022-12-18T10:59:17;5.85;;;3.72;;
773;SDS011;370;48.810;9.150;2022-12-18T11:01:45;8.15;;;5.22;;
773;SDS011;370;48.810;9.150;2022-12-18T11:04:27;24.90;;;8.00;;
773;SDS011;370;48.810;9.150;2022-12-18T11:07:16;15.30;;;4.90;;
773;SDS011;370;48.810;9.150;2022-12-18T11:09:59;15.52;;;6.85;;
773;SDS011;370;48.810;9.150;2022-12-18T11:12:29;25.13;;;7.70;;
773;SDS011;370;48.810;9.150;2022-12-18T11:15:05;9.20;;;4.85;;
773;SDS011;370;48.810;9.150;2022-12-18T11:17:46;9.40;;;3.67;;
773;SDS011;370;48.810;9.150;2022-12-18T11:20:30;13.00;;;4.72;;
773;SDS011;370;48.810;9.150;2022-12-18T11:22:59;9.65;;;4.85;;
773;SDS011;370;48.810;9.150;2022-12-18T11:25:28;18.35;;;5.90;;
773;SDS011;370;48.810;9.150;2022-12-18T11:27:56;20.95;;;6.10;;
773;SDS011;370;48.810;9.150;2022-12-18T11:30:27;18.65;;;6.28;;
773;SDS011;370;48.810;9.150;2022-12-18T11:32:56;19.58;;;7.60;;
773;SDS011;370;48.810;9.150;2022-12-18T11:35:32;23.77;;;8.48;;
773;SDS011;370;48.810;9.150;2022-12-18T11:38:05;30.75;;;9.90;;
773;SDS011;370;48.810;9.150;2022-12-18T11:40:44;22.63;;;8.70;;
773;SDS011;370;48.810;9.150;2022-12-18T11:43:15;32.63;;;11.98;;
773;SDS011;370;48.810;9.150;2022-12-18T11:45:49;27.30;;;8.23;;
773;SDS011;370;48.810;9.150;2022-12-18T11:48:21;46.13;;;12.30;;
773;SDS011;370;48.810;9.150;2022-12-18T11:50:52;29.13;;;9.27;;
773;SDS011;370;48.810;9.150;2022-12-18T11:53:20;32.10;;;8.88;;
773;SDS011;370;48.810;9.150;2022-12-18T11:55:51;20.58;;;8.32;;
773;SDS011;370;48.810;9.150;2022-12-18T11:58:41;20.55;;;7.57;;
773;SDS011;370;48.810;9.150;2022-12-18T12:01:14;30.73;;;9.30;;
773;SDS011;370;48.810;9.150;2022-12-18T12:03:58;27.23;;;10.43;;
773;SDS011;370;48.810;9.150;2022-12-18T12:06:39;30.95;;;9.25;;
773;SDS011;370;48.810;9.150;2022-12-18T12:09:15;31.35;;;10.70;;
773;SDS011;370;48.810;9.150;2022-12-18T12:11:51;26.58;;;10.25;;
773;SDS011;370;48.810;9.150;2022-12-18T12:17:15;23.25;;;9.13;;
773;SDS011;370;48.810;9.150;2022-12-18T12:19:52;21.27;;;7.00;;
773;SDS011;370;48.810;9.150;2022-12-18T12:22:28;35.97;;;9.95;;
773;SDS011;370;48.810;9.150;2022-12-18T12:25:04;32.13;;;9.05;;
773;SDS011;370;48.810;9.150;2022-12-18T12:27:45;29.65;;;7.85;;
773;SDS011;370;48.810;9.150;2022-12-18T12:30:19;24.45;;;6.25;;
773;SDS011;370;48.810;9.150;2022-12-18T12:33:01;25.63;;;6.57;;
773;SDS011;370;48.810;9.150;2022-12-18T12:35:44;23.77;;;7.25;;
773;SDS011;370;48.810;9.150;2022-12-18T12:38:15;22.27;;;7.95;;
773;SDS011;370;48.810;9.150;2022-12-18T12:40:47;17.40;;;6.22;;
773;SDS011;370;48.810;9.150;2022-12-18T12:43:25;16.85;;;4.53;;
773;SDS011;370;48.810;9.150;2022-12-18T12:45:58;27.33;;;8.48;;
773;SDS011;370;48.810;9.150;2022-12-18T12:48:33;27.08;;;7.63;;
773;SDS011;370;48.810;9.150;2022-12-18T12:51:08;23.95;;;5.72;;
773;SDS011;370;48.810;9.150;2022-12-18T12:53:40;23.35;;;6.20;;
773;SDS011;370;48.810;9.150;2022-12-18T12:56:08;14.45;;;5.35;;
773;SDS011;370;48.810;9.150;2022-12-18T12:58:41;9.18;;;4.45;;
773;SDS011;370;48.810;9.150;2022-12-18T13:01:23;25.75;;;5.50;;
773;SDS011;370;48.810;9.150;2022-12-18T13:03:56;9.35;;;5.05;;
773;SDS011;370;48.810;9.150;2022-12-18T13:06:37;17.45;;;4.70;;
773;SDS011;370;48.810;9.150;2022-12-18T13:09:09;16.27;;;5.93;;
773;SDS011;370;48.810;9.150;2022-12-18T13:11:37;18.90;;;5.95;;
773;SDS011;370;48.810;9.150;2022-12-18T13:14:26;17.55;;;6.97;;
773;SDS011;370;48.810;9.150;2022-12-18T13:19:41;20.80;;;6.15;;
773;SDS011;370;48.810;9.150;2022-12-18T13:22:19;22.55;;;6.63;;
773;SDS011;370;48.810;9.150;2022-12-18T13:24:48;21.08;;;6.00;;
773;SDS011;370;48.810;9.150;2022-12-18T13:36:15;16.17;;;5.68;;
773;SDS011;370;48.810;9.150;2022-12-18T13:41:52;15.18;;;5.78;;
773;SDS011;370;48.810;9.150;2022-12-18T13:44:24;20.10;;;4.63;;
773;SDS011;370;48.810;9.150;2022-12-18T13:46:55;12.23;;;4.45;;
773;SDS011;370;48.810;9.150;2022-12-18T13:49:24;5.28;;;3.70;;
773;SDS011;370;48.810;9.150;2022-12-18T13:51:57;7.05;;;3.75;;
773;SDS011;370;48.810;9.150;2022-12-18T13:54:30;13.98;;;6.45;;
773;SDS011;370;48.810;9.150;2022-12-18T13:57:00;15.55;;;5.43;;
773;SDS011;370;48.810;9.150;2022-12-18T13:59:32;12.52;;;4.72;;
773;SDS011;370;48.810;9.150;2022-12-18T14:02:11;12.02;;;4.70;;
773;SDS011;370;48.810;9.150;2022-12-18T14:04:40;12.48;;;4.55;;
773;SDS011;370;48.810;9.150;2022-12-18T14:07:07;12.60;;;5.28;;
773;SDS011;370;48.810;9.150;2022-12-18T14:09:39;11.25;;;4.03;;
773;SDS011;370;48.810;9.150;2022-12-18T14:12:14;12.20;;;5.57;;
773;SDS011;370;48.810;9.150;2022-12-18T14:15:00;19.05;;;5.53;;
773;SDS011;370;48.810;9.150;2022-12-18T14:17:29;11.18;;;4.90;;
773;SDS011;370;48.810;9.150;2022-12-18T14:19:57;25.05;;;5.50;;
773;SDS011;370;48.810;9.150;2022-12-18T14:22:24;29.88;;;3.58;;
773;SDS011;370;48.810;9.150;2022-12-18T14:25:17;16.75;;;6.22;;
773;SDS011;370;48.810;9.150;2022-12-18T14:27:47;6.60;;;4.68;;
773;SDS011;370;48.810;9.150;2022-12-18T14:30:26;10.77;;;3.45;;
773;SDS011;370;48.810;9.150;2022-12-18T14:33:08;13.80;;;6.53;;
773;SDS011;370;48.810;9.150;2022-12-18T14:35:37;15.07;;;5.70;;
773;SDS011;370;48.810;9.150;2022-12-18T14:40:52;9.68;;;3.95;;
773;SDS011;370;48.810;9.150;2022-12-18T14:43:20;14.95;;;4.85;;
773;SDS011;370;48.810;9.150;2022-12-18T14:45:48;17.98;;;7.63;;
773;SDS011;370;48.810;9.150;2022-12-18T14:48:17;17.60;;;4.25;;
773;SDS011;370;48.810;9.150;2022-12-18T14:50:54;16.85;;;6.55;;
773;SDS011;370;48.810;9.150;2022-12-18T14:53:23;14.57;;;3.50;;
773;SDS011;370;48.810;9.150;2022-12-18T14:55:59;10.90;;;3.88;;
773;SDS011;370;48.810;9.150;2022-12-18T14:58:27;14.35;;;5.50;;
773;SDS011;370;48.810;9.150;2022-12-18T15:00:54;17.35;;;4.82;;
773;SDS011;370;48.810;9.150;2022-12-18T15:03:22;23.70;;;4.90;;
773;SDS011;370;48.810;9.150;2022-12-18T15:05:49;16.70;;;4.88;;
773;SDS011;370;48.810;9.150;2022-12-18T15:08:29;17.20;;;7.93;;
773;SDS011;370;48.810;9.150;2022-12-18T15:11:00;12.38;;;4.82;;
773;SDS011;370;48.810;9.150;2022-12-18T15:13:27;13.27;;;5.70;;
773;SDS011;370;48.810;9.150;2022-12-18T15:15:53;8.82;;;3.15;;
773;SDS011;370;48.810;9.150;2022-12-18T15:18:26;20.33;;;7.15;;
773;SDS011;370;48.810;9.150;2022-12-18T15:20:58;31.40;;;6.90;;
773;SDS011;370;48.810;9.150;2022-12-18T15:23:35;13.75;;;4.47;;
773;SDS011;370;48.810;9.150;2022-12-18T15:26:11;31.15;;;7.10;;
773;SDS011;370;48.810;9.150;2022-12-18T15:28:43;10.18;;;4.60;;
773;SDS011;370;48.810;9.150;2022-12-18T15:31:21;22.13;;;5.50;;
773;SDS011;370;48.810;9.150;2022-12-18T15:34:09;11.32;;;7.18;;
773;SDS011;370;48.810;9.150;2022-12-18T15:36:39;11.48;;;4.15;;
773;SDS011;370;48.810;9.150;2022-12-18T15:39:06;19.92;;;5.25;;
773;SDS011;370;48.810;9.150;2022-12-18T15:41:36;8.05;;;3.40;;
773;SDS011;370;48.810;9.150;2022-12-18T15:44:03;21.90;;;5.28;;
773;SDS011;370;48.810;9.150;2022-12-18T15:46:47;6.15;;;4.60;;
773;SDS011;370;48.810;9.150;2022-12-18T15:49:15;14.70;;;5.65;;
773;SDS011;370;48.810;9.150;2022-12-18T15:51:41;6.50;;;4.28;;
773;SDS011;370;48.810;9.150;2022-12-18T15:54:10;9.45;;;3.10;;
773;SDS011;370;48.810;9.150;2022-12-18T15:56:41;13.40;;;4.25;;
773;SDS011;370;48.810;9.150;2022-12-18T15:59:25;12.15;;;4.15;;
773;SDS011;370;48.810;9.150;2022-12-18T16:01:52;11.85;;;6.03;;
773;SDS011;370;48.810;9.150;2022-12-18T16:04:21;22.80;;;6.25;;
773;SDS011;370;48.810;9.150;2022-12-18T16:06:48;19.80;;;4.78;;
773;SDS011;370;48.810;9.150;2022-12-18T16:09:16;2.55;;;2.38;;
773;SDS011;370;48.810;9.150;2022-12-18T16:11:43;9.73;;;3.85;;
773;SDS011;370;48.810;9.150;2022-12-18T16:14:15;11.50;;;3.60;;
773;SDS011;370;48.810;9.150;2022-12-18T16:16:44;16.42;;;4.68;;
773;SDS011;370;48.810;9.150;2022-12-18T16:19:12;19.20;;;6.68;;